Time;durP1;ratioP1;P1;durP2;ratioP2;P2;SDS_P1;SDS_P2;PMS_P1;PMS_P2;Temp;Humidity;BMP_temperature;BMP_pressure;BME280_temperature;BME280_humidity;BME280_pressure;Samples;Min_cycle;Max_cycle;Signal;HPM_P1;HPM_P2
2023/08/29 00:01:54;;;;;;;5.15;2.63;;;19.60;94.00;;;;;;6268916;22;20016;-74
2023/08/29 00:04:40;;;;;;;3.85;2.47;;;19.60;94.00;;;;;;6272172;22;20425;-75
2023/08/29 00:07:26;;;;;;;4.78;2.20;;;19.60;93.90;;;;;;6271573;22;20054;-75
2023/08/29 00:10:12;;;;;;;5.00;2.75;;;19.60;93.80;;;;;;6268472;22;20018;-75
2023/08/29 00:12:58;;;;;;;3.17;2.15;;;19.60;93.70;;;;;;6272478;22;20007;-75
2023/08/29 00:15:44;;;;;;;4.38;2.25;;;19.60;93.70;;;;;;6269859;22;20386;-75
2023/08/29 00:18:30;;;;;;;4.07;2.75;;;19.50;93.80;;;;;;6270972;22;20015;-74
2023/08/29 00:21:16;;;;;;;3.38;2.20;;;19.50;93.80;;;;;;6270571;22;20042;-75
2023/08/29 00:24:03;;;;;;;4.78;2.60;;;19.50;93.80;;;;;;6269143;22;20007;-75
2023/08/29 00:26:49;;;;;;;3.90;2.28;;;19.50;93.80;;;;;;6248574;22;20034;-75
2023/08/29 00:29:34;;;;;;;2.97;2.03;;;19.50;93.80;;;;;;6268680;22;20562;-75
2023/08/29 00:32:20;;;;;;;3.10;2.03;;;19.50;93.80;;;;;;6248269;22;20006;-74
2023/08/29 00:35:07;;;;;;;3.83;2.20;;;19.50;94.00;;;;;;6271443;22;20065;-77
2023/08/29 00:37:53;;;;;;;4.65;2.70;;;19.40;94.00;;;;;;6269127;22;20385;-77
2023/08/29 00:40:39;;;;;;;4.55;2.22;;;19.40;94.20;;;;;;6268748;22;20015;-76
2023/08/29 00:43:25;;;;;;;6.95;2.55;;;19.40;94.30;;;;;;6272838;22;20344;-77
2023/08/29 00:46:11;;;;;;;3.85;2.78;;;19.40;94.60;;;;;;6268404;22;20027;-77
2023/08/29 00:48:57;;;;;;;5.38;2.80;;;19.40;94.60;;;;;;6272360;22;20349;-77
2023/08/29 00:51:43;;;;;;;5.60;2.83;;;19.30;94.60;;;;;;6272089;22;20011;-77
2023/08/29 00:54:29;;;;;;;6.65;3.05;;;19.30;94.60;;;;;;6276356;22;20122;-76
2023/08/29 00:57:15;;;;;;;3.25;2.20;;;19.30;94.60;;;;;;6275171;22;20035;-76
2023/08/29 01:00:01;;;;;;;3.70;2.08;;;19.30;94.60;;;;;;6270672;22;20004;-78
2023/08/29 01:02:47;;;;;;;4.80;2.85;;;19.20;94.60;;;;;;6270512;22;20038;-77
2023/08/29 01:05:33;;;;;;;4.18;2.40;;;19.20;94.60;;;;;;6271684;22;20459;-78
2023/08/29 01:08:19;;;;;;;3.50;2.35;;;19.10;94.60;;;;;;6268940;22;20031;-78
2023/08/29 01:11:23;;;;;;;6.18;3.13;;;19.10;94.60;;;;;;6267719;22;20012;-77
2023/08/29 01:14:55;;;;;;;6.32;2.35;;;19.10;94.70;;;;;;6269036;22;20011;-78
2023/08/29 01:17:48;;;;;;;3.88;2.72;;;19.10;94.70;;;;;;6263243;22;20630;-73
2023/08/29 01:20:36;;;;;;;7.18;2.95;;;19.00;94.70;;;;;;6270771;22;20023;-73
2023/08/29 01:23:39;;;;;;;4.68;3.05;;;19.00;94.80;;;;;;6271579;22;20090;-72
2023/08/29 01:26:26;;;;;;;3.85;2.25;;;19.00;94.90;;;;;;6273802;22;20530;-75
2023/08/29 01:29:13;;;;;;;4.10;2.38;;;19.00;94.90;;;;;;6251171;22;20078;-75
2023/08/29 01:32:00;;;;;;;5.95;2.50;;;19.00;94.90;;;;;;6272076;22;20012;-76
2023/08/29 01:34:47;;;;;;;3.30;2.15;;;18.90;94.90;;;;;;6250184;22;20031;-76
2023/08/29 01:37:37;;;;;;;3.38;2.03;;;18.90;94.90;;;;;;6271862;22;20016;-78
2023/08/29 01:40:23;;;;;;;6.15;2.53;;;18.90;94.90;;;;;;6271155;22;20011;-78
2023/08/29 01:43:09;;;;;;;3.53;2.05;;;18.80;95.00;;;;;;6271425;22;20023;-78
2023/08/29 01:45:55;;;;;;;3.80;2.22;;;18.80;95.00;;;;;;6273445;22;20019;-78
2023/08/29 01:48:42;;;;;;;4.63;3.25;;;18.80;95.10;;;;;;6271411;22;20418;-78
2023/08/29 01:51:28;;;;;;;4.15;2.50;;;18.70;95.10;;;;;;6265324;22;20011;-78
2023/08/29 01:54:14;;;;;;;3.60;1.98;;;18.70;95.20;;;;;;6269925;22;20447;-78
2023/08/29 01:57:02;;;;;;;4.97;2.45;;;18.70;95.20;;;;;;6249793;22;20087;-78
2023/08/29 01:59:49;;;;;;;2.75;1.88;;;18.70;95.20;;;;;;6250890;22;20008;-77
2023/08/29 02:02:35;;;;;;;2.95;2.03;;;18.70;95.20;;;;;;6272257;22;20433;-78
2023/08/29 02:05:21;;;;;;;3.50;2.30;;;18.70;95.20;;;;;;6272349;22;20069;-75
2023/08/29 02:08:07;;;;;;;3.80;1.98;;;18.60;95.20;;;;;;6270177;22;20396;-75
2023/08/29 02:10:53;;;;;;;3.88;2.92;;;18.60;95.30;;;;;;6271606;22;20016;-74
2023/08/29 02:13:39;;;;;;;3.75;2.00;;;18.50;95.40;;;;;;6269492;22;20105;-74
2023/08/29 02:16:25;;;;;;;3.92;2.22;;;18.50;95.40;;;;;;6270495;22;20270;-73
2023/08/29 02:19:11;;;;;;;2.53;1.83;;;18.40;95.50;;;;;;6271842;22;20008;-73
2023/08/29 02:21:57;;;;;;;5.25;2.13;;;18.40;95.50;;;;;;6273547;22;20500;-74
2023/08/29 02:24:43;;;;;;;11.43;2.25;;;18.40;95.50;;;;;;6269767;22;20047;-74
2023/08/29 02:27:29;;;;;;;3.20;2.30;;;18.40;95.60;;;;;;6271129;22;20399;-74
2023/08/29 02:30:15;;;;;;;3.83;2.35;;;18.40;95.60;;;;;;6250400;22;20045;-73
2023/08/29 02:33:01;;;;;;;4.63;1.80;;;18.40;95.70;;;;;;6271051;22;20491;-73
2023/08/29 02:35:47;;;;;;;3.85;2.20;;;18.40;95.60;;;;;;6273514;22;20026;-73
2023/08/29 02:38:34;;;;;;;5.97;2.00;;;18.30;95.70;;;;;;6271496;22;20016;-71
2023/08/29 02:41:19;;;;;;;3.80;1.77;;;18.30;95.60;;;;;;6271824;22;20024;-71
2023/08/29 02:44:05;;;;;;;3.35;2.00;;;18.30;95.70;;;;;;6272939;22;20062;-66
2023/08/29 02:46:51;;;;;;;2.70;1.50;;;18.30;95.70;;;;;;6271043;22;20014;-66
2023/08/29 02:49:37;;;;;;;6.43;1.92;;;18.30;95.70;;;;;;6272272;22;20012;-66
2023/08/29 02:52:23;;;;;;;7.47;2.20;;;18.30;95.70;;;;;;6273670;22;20018;-66
2023/08/29 02:55:10;;;;;;;2.83;1.60;;;18.30;95.70;;;;;;6270788;22;20022;-71
2023/08/29 02:57:55;;;;;;;3.92;1.63;;;18.30;95.70;;;;;;6249983;22;20011;-70
2023/08/29 03:00:41;;;;;;;3.13;2.22;;;18.20;95.80;;;;;;6270221;22;20008;-69
2023/08/29 03:03:27;;;;;;;3.38;1.92;;;18.20;95.80;;;;;;6272513;22;20014;-69
2023/08/29 03:06:14;;;;;;;3.70;2.40;;;18.20;95.90;;;;;;6271883;22;20286;-69
2023/08/29 03:09:01;;;;;;;3.28;2.15;;;18.10;95.90;;;;;;6272304;22;20007;-69
2023/08/29 03:11:47;;;;;;;7.30;2.03;;;18.10;96.00;;;;;;6270761;22;20444;-70
2023/08/29 03:14:33;;;;;;;6.82;2.20;;;18.10;96.00;;;;;;6273675;22;20070;-70
2023/08/29 03:17:19;;;;;;;2.50;1.48;;;18.00;96.10;;;;;;6268874;22;20016;-70
2023/08/29 03:20:08;;;;;;;4.65;2.05;;;18.00;96.20;;;;;;6273259;22;20018;-70
2023/08/29 03:22:54;;;;;;;2.17;1.77;;;18.00;96.30;;;;;;6270849;22;20007;-69
2023/08/29 03:25:40;;;;;;;3.42;2.05;;;17.90;96.30;;;;;;6272094;22;20046;-70
2023/08/29 03:28:26;;;;;;;4.22;2.30;;;17.90;96.40;;;;;;6270569;22;20068;-70
2023/08/29 03:31:13;;;;;;;4.35;2.50;;;17.90;96.40;;;;;;6270756;22;20506;-70
2023/08/29 03:34:00;;;;;;;5.70;1.70;;;17.90;96.50;;;;;;6271171;22;20004;-70
2023/08/29 03:36:46;;;;;;;4.00;1.80;;;17.80;96.50;;;;;;6270275;22;20456;-70
2023/08/29 03:39:32;;;;;;;2.40;1.60;;;17.80;96.50;;;;;;6272127;22;20429;-70
2023/08/29 03:42:18;;;;;;;4.05;1.95;;;17.80;96.60;;;;;;6269474;22;20345;-70
2023/08/29 03:45:04;;;;;;;2.67;1.75;;;17.70;96.70;;;;;;6269032;22;20008;-70
2023/08/29 03:47:50;;;;;;;4.43;1.80;;;17.80;96.70;;;;;;6248627;22;20452;-70
2023/08/29 03:50:36;;;;;;;6.35;2.20;;;17.70;96.80;;;;;;6269227;22;20065;-70
2023/08/29 03:53:22;;;;;;;4.65;2.03;;;17.70;96.80;;;;;;6271730;22;20049;-70
2023/08/29 03:56:09;;;;;;;3.08;1.67;;;17.70;96.90;;;;;;6271562;22;20046;-70
2023/08/29 03:58:55;;;;;;;3.92;2.08;;;17.70;96.90;;;;;;6270072;22;20444;-70
2023/08/29 04:01:41;;;;;;;2.28;1.60;;;17.70;96.90;;;;;;6271743;22;20420;-70
2023/08/29 04:04:27;;;;;;;2.53;1.90;;;17.60;96.90;;;;;;6269732;22;20043;-70
2023/08/29 04:07:12;;;;;;;4.95;1.75;;;17.70;97.00;;;;;;6275708;22;20015;-70
2023/08/29 04:09:58;;;;;;;3.42;2.10;;;17.60;97.10;;;;;;6277406;22;20372;-71
2023/08/29 04:12:45;;;;;;;6.93;1.80;;;17.50;97.10;;;;;;6271484;22;20016;-70
2023/08/29 04:15:31;;;;;;;3.17;2.00;;;17.50;97.10;;;;;;6271906;22;20025;-70
2023/08/29 04:18:17;;;;;;;2.92;2.17;;;17.50;97.20;;;;;;6270524;22;20015;-70
2023/08/29 04:21:03;;;;;;;3.58;2.30;;;17.50;97.20;;;;;;6268774;22;20472;-70
2023/08/29 04:23:49;;;;;;;2.42;1.65;;;17.50;97.30;;;;;;6268619;22;20015;-70
2023/08/29 04:26:35;;;;;;;5.00;2.03;;;17.50;97.30;;;;;;6272581;22;20003;-70
2023/08/29 04:29:21;;;;;;;2.58;1.75;;;17.50;97.40;;;;;;6271172;22;20008;-70
2023/08/29 04:32:07;;;;;;;3.60;2.38;;;17.50;97.40;;;;;;6271679;22;20015;-70
2023/08/29 04:34:53;;;;;;;3.30;1.65;;;17.50;97.50;;;;;;6271441;22;20053;-70
2023/08/29 04:37:39;;;;;;;2.58;1.60;;;17.50;97.50;;;;;;6269097;22;20039;-70
2023/08/29 04:40:25;;;;;;;2.30;1.77;;;17.50;97.50;;;;;;6269854;22;20039;-70
2023/08/29 04:43:11;;;;;;;2.40;1.80;;;17.50;97.60;;;;;;6268593;22;20011;-70
2023/08/29 04:45:57;;;;;;;1.92;1.50;;;17.50;97.60;;;;;;6270962;22;20018;-71
2023/08/29 04:48:43;;;;;;;4.28;2.10;;;17.50;97.60;;;;;;6268806;22;20011;-70
2023/08/29 04:51:29;;;;;;;2.80;1.98;;;17.50;97.60;;;;;;6269205;22;20011;-70
2023/08/29 04:54:14;;;;;;;3.95;1.70;;;17.50;97.60;;;;;;6270603;22;20019;-69
2023/08/29 04:57:00;;;;;;;3.13;1.77;;;17.50;97.60;;;;;;6269063;22;20012;-69
2023/08/29 04:59:47;;;;;;;3.63;1.83;;;17.50;97.70;;;;;;6271484;22;20046;-69
2023/08/29 05:02:33;;;;;;;2.92;1.83;;;17.50;97.70;;;;;;6270051;22;20095;-70
2023/08/29 05:05:19;;;;;;;5.70;1.80;;;17.50;97.80;;;;;;6272518;22;20091;-69
2023/08/29 05:08:05;;;;;;;3.55;2.55;;;17.50;97.80;;;;;;6247537;22;20515;-69
2023/08/29 05:10:51;;;;;;;2.35;1.58;;;17.50;97.80;;;;;;6271586;22;20091;-69
2023/08/29 05:13:37;;;;;;;3.33;1.90;;;17.40;97.90;;;;;;6269402;22;20034;-69
2023/08/29 05:16:23;;;;;;;3.83;2.05;;;17.50;97.90;;;;;;6271776;22;20084;-69
2023/08/29 05:19:09;;;;;;;3.65;1.95;;;17.50;98.00;;;;;;6270027;22;20449;-72
2023/08/29 05:21:55;;;;;;;4.40;2.22;;;17.50;98.00;;;;;;6270317;22;20012;-73
2023/08/29 05:24:41;;;;;;;4.38;2.80;;;17.50;98.00;;;;;;6269563;22;20046;-70
2023/08/29 05:27:27;;;;;;;2.90;2.00;;;17.50;98.00;;;;;;6270868;22;20008;-70
2023/08/29 05:30:13;;;;;;;2.80;1.88;;;17.50;98.10;;;;;;6270820;22;20026;-69
2023/08/29 05:32:59;;;;;;;3.60;2.30;;;17.50;98.10;;;;;;6271438;22;20337;-71
2023/08/29 05:35:45;;;;;;;3.40;2.13;;;17.60;98.20;;;;;;6268924;22;20019;-72
2023/08/29 05:38:31;;;;;;;3.60;2.10;;;17.50;98.20;;;;;;6270112;22;20012;-72
2023/08/29 05:41:16;;;;;;;5.18;2.25;;;17.50;98.30;;;;;;6268989;22;20103;-72
2023/08/29 05:44:03;;;;;;;3.40;2.05;;;17.50;98.40;;;;;;6270770;22;20018;-72
2023/08/29 05:46:48;;;;;;;3.92;2.30;;;17.50;98.40;;;;;;6272659;22;20015;-72
2023/08/29 05:49:34;;;;;;;3.97;2.40;;;17.60;98.50;;;;;;6270833;22;20065;-72
2023/08/29 05:52:20;;;;;;;4.03;2.40;;;17.60;98.60;;;;;;6269038;22;20018;-72
2023/08/29 05:55:08;;;;;;;4.55;2.38;;;17.60;98.60;;;;;;6272851;22;20019;-73
2023/08/29 05:57:54;;;;;;;5.88;2.45;;;17.60;98.70;;;;;;6271672;22;20413;-72
2023/08/29 06:00:40;;;;;;;3.63;2.83;;;17.60;98.80;;;;;;6270452;22;20375;-71
2023/08/29 06:03:26;;;;;;;3.50;2.03;;;17.60;98.90;;;;;;6270543;22;20043;-73
2023/08/29 06:06:11;;;;;;;5.80;2.45;;;17.60;99.10;;;;;;6268116;22;20068;-69
2023/08/29 06:08:59;;;;;;;3.47;2.15;;;17.60;99.10;;;;;;6272432;22;20075;-74
2023/08/29 06:11:45;;;;;;;6.05;2.88;;;17.70;99.10;;;;;;6273368;22;20082;-76
2023/08/29 06:14:31;;;;;;;7.90;2.85;;;17.70;99.20;;;;;;6272479;22;20337;-75
2023/08/29 06:17:18;;;;;;;4.03;2.65;;;17.70;99.20;;;;;;6273854;22;20059;-70
2023/08/29 06:20:05;;;;;;;4.22;2.72;;;17.70;99.30;;;;;;6272664;22;20011;-64
2023/08/29 06:22:52;;;;;;;4.68;2.92;;;17.80;99.30;;;;;;6272801;22;20583;-68
2023/08/29 06:25:38;;;;;;;4.57;2.70;;;17.80;99.40;;;;;;6273164;22;20007;-75
2023/08/29 06:28:24;;;;;;;7.28;3.33;;;17.80;99.50;;;;;;6273577;22;20015;-70
2023/08/29 06:31:10;;;;;;;5.15;3.05;;;17.90;99.50;;;;;;6272765;22;20016;-71
2023/08/29 06:33:56;;;;;;;4.55;3.22;;;17.90;99.40;;;;;;6272740;22;20008;-71
2023/08/29 06:36:42;;;;;;;7.25;3.50;;;18.00;99.50;;;;;;6272703;22;20023;-73
2023/08/29 06:39:28;;;;;;;4.28;3.17;;;18.00;99.50;;;;;;6270254;22;20464;-72
2023/08/29 06:42:14;;;;;;;5.80;3.95;;;18.00;99.50;;;;;;6272202;22;20024;-72
2023/08/29 06:45:00;;;;;;;5.15;3.83;;;18.10;99.60;;;;;;6271708;22;20039;-72
2023/08/29 06:47:45;;;;;;;4.55;3.00;;;18.10;99.60;;;;;;6271909;22;20023;-72
2023/08/29 06:50:31;;;;;;;5.03;3.45;;;18.20;99.70;;;;;;6272089;22;20066;-72
2023/08/29 06:53:17;;;;;;;6.32;3.55;;;18.20;99.60;;;;;;6272855;22;20014;-72
2023/08/29 06:56:04;;;;;;;7.80;3.40;;;18.20;99.50;;;;;;6273065;22;20049;-73
2023/08/29 06:58:50;;;;;;;3.97;2.95;;;18.20;99.60;;;;;;6272318;22;20014;-73
2023/08/29 07:01:37;;;;;;;3.80;2.88;;;18.30;99.70;;;;;;6273455;22;20012;-73
2023/08/29 07:04:23;;;;;;;6.47;3.50;;;18.30;99.70;;;;;;6272658;22;20015;-74
2023/08/29 07:07:09;;;;;;;5.07;3.20;;;18.40;99.70;;;;;;6271266;22;20039;-73
2023/08/29 07:09:55;;;;;;;3.28;2.38;;;18.40;99.60;;;;;;6271331;22;20039;-73
2023/08/29 07:12:42;;;;;;;4.95;2.80;;;18.50;99.60;;;;;;6270394;22;20008;-74
2023/08/29 07:15:28;;;;;;;3.78;2.85;;;18.50;99.40;;;;;;6276258;22;20405;-73
2023/08/29 07:18:14;;;;;;;4.32;3.00;;;18.50;99.50;;;;;;6278095;22;20008;-74
2023/08/29 07:21:01;;;;;;;4.93;3.00;;;18.50;99.50;;;;;;6273194;22;20012;-74
2023/08/29 07:23:46;;;;;;;3.97;2.90;;;18.50;99.50;;;;;;6273330;22;20014;-76
2023/08/29 07:26:32;;;;;;;4.50;2.60;;;18.40;99.60;;;;;;6272219;22;20019;-75
2023/08/29 07:29:19;;;;;;;5.97;3.17;;;18.50;99.70;;;;;;6269666;22;20015;-75
2023/08/29 07:32:05;;;;;;;5.00;3.45;;;18.50;99.80;;;;;;6272867;22;20026;-75
2023/08/29 07:34:51;;;;;;;5.05;2.80;;;18.50;99.90;;;;;;6272135;22;20445;-75
2023/08/29 07:37:37;;;;;;;7.53;3.42;;;18.50;99.90;;;;;;6271525;22;20506;-75
2023/08/29 07:40:23;;;;;;;5.55;3.53;;;18.50;99.90;;;;;;6271960;22;20436;-76
2023/08/29 07:43:09;;;;;;;5.57;3.90;;;18.60;99.90;;;;;;6272227;22;20020;-73
2023/08/29 07:45:55;;;;;;;6.10;3.45;;;18.60;99.90;;;;;;6269907;22;20015;-73
2023/08/29 07:48:41;;;;;;;5.40;3.10;;;18.60;99.80;;;;;;6267633;22;20447;-75
2023/08/29 07:51:27;;;;;;;4.50;3.20;;;18.50;99.80;;;;;;6271843;22;20012;-74
2023/08/29 07:54:13;;;;;;;4.45;3.70;;;18.50;99.90;;;;;;6271896;22;20019;-75
2023/08/29 07:56:59;;;;;;;7.68;3.65;;;18.50;99.90;;;;;;6272009;22;20475;-75
2023/08/29 07:59:45;;;;;;;4.60;2.90;;;18.60;99.90;;;;;;6271269;22;20062;-73
2023/08/29 08:02:33;;;;;;;6.03;4.25;;;18.60;99.90;;;;;;6249303;22;20011;-74
2023/08/29 08:05:19;;;;;;;4.68;3.30;;;18.60;99.90;;;;;;6272702;22;20011;-77
2023/08/29 08:08:05;;;;;;;7.43;4.70;;;18.60;99.90;;;;;;6249801;22;20035;-75
2023/08/29 08:10:51;;;;;;;7.38;3.22;;;18.60;99.90;;;;;;6250229;22;20034;-76
2023/08/29 08:13:37;;;;;;;3.55;2.92;;;18.60;99.90;;;;;;6271049;22;20502;-75
2023/08/29 08:16:23;;;;;;;8.95;3.70;;;18.60;99.90;;;;;;6271071;22;20027;-76
2023/08/29 08:19:10;;;;;;;6.72;3.15;;;18.60;99.90;;;;;;6265172;22;20064;-76
2023/08/29 08:21:56;;;;;;;6.10;3.70;;;18.60;99.90;;;;;;6270583;22;20022;-78
2023/08/29 08:24:42;;;;;;;5.65;3.25;;;18.60;99.90;;;;;;6271865;22;20038;-75
2023/08/29 08:27:29;;;;;;;5.53;3.40;;;18.50;99.90;;;;;;6273233;22;20015;-70
2023/08/29 08:30:15;;;;;;;7.07;3.45;;;18.50;99.90;;;;;;6270521;22;20008;-78
2023/08/29 08:33:01;;;;;;;4.07;2.97;;;18.50;99.90;;;;;;6272712;22;20015;-75
2023/08/29 08:35:47;;;;;;;5.22;3.75;;;18.40;99.90;;;;;;6272092;22;20062;-76
2023/08/29 08:38:33;;;;;;;5.45;3.58;;;18.40;99.90;;;;;;6270997;22;20125;-80
2023/08/29 08:41:19;;;;;;;5.38;3.25;;;18.40;99.90;;;;;;6270173;22;20024;-77
2023/08/29 08:44:09;;;;;;;4.88;3.20;;;18.40;99.90;;;;;;6271800;22;20038;-77
2023/08/29 08:46:55;;;;;;;4.85;3.60;;;18.40;99.90;;;;;;6272600;22;20348;-80
2023/08/29 08:49:41;;;;;;;4.07;3.28;;;18.40;99.90;;;;;;6271759;22;20433;-76
2023/08/29 08:52:30;;;;;;;3.83;2.83;;;18.40;99.90;;;;;;6272529;22;20148;-76
2023/08/29 08:55:16;;;;;;;3.90;2.92;;;18.40;99.90;;;;;;6271207;22;20023;-75
2023/08/29 08:58:03;;;;;;;7.60;3.75;;;18.40;99.90;;;;;;6271180;22;20039;-73
2023/08/29 09:00:49;;;;;;;8.05;3.65;;;18.40;99.90;;;;;;6271523;22;20103;-75
2023/08/29 09:03:35;;;;;;;4.80;2.97;;;18.40;99.90;;;;;;6268767;22;20008;-76
2023/08/29 09:06:21;;;;;;;9.93;3.47;;;18.40;99.90;;;;;;6270771;22;20090;-76
2023/08/29 09:09:23;;;;;;;4.70;3.00;;;18.30;99.90;;;;;;6271399;22;20520;-75
2023/08/29 09:12:09;;;;;;;4.65;3.40;;;18.40;99.90;;;;;;6251047;22;20015;-75
2023/08/29 09:14:55;;;;;;;5.15;2.97;;;18.40;99.90;;;;;;6269927;22;20437;-76
2023/08/29 09:17:54;;;;;;;4.03;2.85;;;18.50;99.90;;;;;;6271171;22;20452;-75
2023/08/29 09:20:45;;;;;;;3.97;2.72;;;18.60;99.90;;;;;;6250598;22;20012;-74
2023/08/29 09:23:37;;;;;;;5.07;2.88;;;18.80;99.90;;;;;;6270553;22;20007;-75
2023/08/29 09:26:30;;;;;;;5.45;2.38;;;18.80;99.90;;;;;;6270664;22;20007;-74
2023/08/29 09:29:23;;;;;;;2.80;2.33;;;18.90;99.90;;;;;;6248293;22;20012;-76
2023/08/29 09:32:13;;;;;;;5.28;2.08;;;18.90;99.90;;;;;;6270495;22;20011;-75
2023/08/29 09:35:00;;;;;;;5.05;1.60;;;18.90;99.60;;;;;;6269863;22;20027;-76
2023/08/29 09:37:51;;;;;;;2.75;1.90;;;19.00;99.20;;;;;;6271808;22;20512;-74
2023/08/29 09:40:48;;;;;;;4.90;2.10;;;18.90;99.00;;;;;;6269057;22;20069;-74
2023/08/29 09:43:46;;;;;;;2.90;2.30;;;18.90;99.10;;;;;;6271169;22;20046;-74
2023/08/29 09:46:32;;;;;;;3.33;2.00;;;19.00;99.30;;;;;;6270898;22;20062;-73
2023/08/29 09:49:18;;;;;;;3.88;2.28;;;19.00;99.30;;;;;;6269644;22;20349;-78
2023/08/29 09:52:04;;;;;;;3.28;1.92;;;19.00;99.10;;;;;;6269678;22;20014;-76
2023/08/29 09:54:52;;;;;;;4.80;2.78;;;19.00;98.80;;;;;;6273284;22;20058;-75
2023/08/29 09:57:39;;;;;;;4.05;2.35;;;19.00;99.00;;;;;;6271842;22;20012;-77
2023/08/29 10:00:25;;;;;;;2.60;2.13;;;19.00;99.00;;;;;;6272616;22;20099;-78
2023/08/29 10:03:11;;;;;;;3.53;2.30;;;19.00;99.10;;;;;;6271838;22;20082;-78
2023/08/29 10:06:01;;;;;;;3.03;2.35;;;18.90;98.90;;;;;;6273335;22;20007;-74
2023/08/29 10:08:59;;;;;;;3.17;1.92;;;18.90;99.10;;;;;;6271846;22;20087;-74
2023/08/29 10:11:46;;;;;;;2.88;1.75;;;18.80;98.90;;;;;;6272799;22;20016;-77
2023/08/29 10:14:34;;;;;;;6.00;2.42;;;18.80;98.80;;;;;;6271751;22;20099;-76
2023/08/29 10:17:20;;;;;;;3.05;2.25;;;18.80;98.80;;;;;;6271526;22;20016;-76
2023/08/29 10:20:09;;;;;;;3.22;2.58;;;18.70;98.90;;;;;;6272494;22;20457;-75
2023/08/29 10:22:56;;;;;;;2.92;2.17;;;18.70;99.10;;;;;;6276653;22;20039;-75
2023/08/29 10:25:43;;;;;;;2.78;2.00;;;18.70;99.10;;;;;;6279313;22;20004;-78
2023/08/29 10:28:30;;;;;;;3.88;2.35;;;18.70;99.00;;;;;;6278795;22;20023;-78
2023/08/29 10:31:18;;;;;;;5.75;2.40;;;18.70;99.10;;;;;;6271988;22;20014;-67
2023/08/29 10:34:04;;;;;;;2.83;2.13;;;18.70;99.10;;;;;;6270728;22;20399;-67
2023/08/29 10:36:50;;;;;;;4.07;2.58;;;18.70;99.00;;;;;;6269651;22;20026;-68
2023/08/29 10:39:36;;;;;;;3.10;2.20;;;18.80;99.10;;;;;;6271220;22;20073;-67
2023/08/29 10:42:22;;;;;;;2.90;2.05;;;18.70;99.10;;;;;;6272749;22;20020;-68
2023/08/29 10:45:12;;;;;;;3.88;2.85;;;18.80;99.10;;;;;;6272586;22;20008;-68
2023/08/29 10:47:58;;;;;;;4.70;2.95;;;18.80;99.00;;;;;;6271523;22;20043;-68
2023/08/29 10:51:08;;;;;;;3.92;2.58;;;18.80;99.20;;;;;;6272060;22;20086;-67
2023/08/29 10:54:05;;;;;;;3.78;2.30;;;18.90;99.10;;;;;;6272002;22;20050;-68
2023/08/29 10:56:56;;;;;;;3.25;2.40;;;19.00;99.10;;;;;;6270450;22;20437;-68
2023/08/29 10:59:42;;;;;;;3.35;2.08;;;19.00;99.00;;;;;;6273097;22;20463;-77
2023/08/29 11:02:30;;;;;;;3.67;2.58;;;19.00;99.00;;;;;;6269983;22;20035;-77
2023/08/29 11:05:16;;;;;;;4.97;2.80;;;19.00;98.90;;;;;;6249037;22;20258;-78
2023/08/29 11:08:31;;;;;;;4.93;3.05;;;19.00;99.00;;;;;;6272492;22;20348;-76
2023/08/29 11:11:20;;;;;;;4.43;2.67;;;19.00;98.80;;;;;;6263402;22;20007;-78
2023/08/29 11:14:06;;;;;;;3.75;2.55;;;19.00;99.00;;;;;;6271237;22;20310;-78
2023/08/29 11:17:12;;;;;;;3.75;2.75;;;19.00;98.90;;;;;;6272034;22;20105;-77
2023/08/29 11:19:58;;;;;;;;;;;19.00;98.80;;;;;;6270974;22;20042;-76
2023/08/29 11:22:47;;;;;;;3.13;2.65;;;19.00;98.80;;;;;;6270652;22;20231;-78
2023/08/29 11:25:37;;;;;;;7.05;2.97;;;19.10;98.80;;;;;;6269739;22;20008;-78
2023/08/29 11:28:23;;;;;;;6.28;3.33;;;19.20;98.80;;;;;;6249135;22;20000;-76
2023/08/29 11:31:09;;;;;;;4.03;3.17;;;19.30;98.80;;;;;;6269443;22;20012;-77
2023/08/29 11:33:55;;;;;;;5.07;3.53;;;19.40;98.70;;;;;;6272895;22;20376;-78
2023/08/29 11:36:44;;;;;;;3.70;3.08;;;19.60;98.60;;;;;;6270467;22;20023;-77
2023/08/29 11:39:30;;;;;;;5.97;3.55;;;19.70;98.30;;;;;;6271899;22;20057;-77
2023/08/29 11:42:20;;;;;;;6.57;3.42;;;19.80;98.30;;;;;;6271666;22;20077;-77
2023/08/29 11:45:08;;;;;;;4.65;3.95;;;19.90;98.10;;;;;;6271064;22;20057;-78
2023/08/29 11:47:53;;;;;;;6.97;2.85;;;20.00;98.00;;;;;;6270898;22;20535;-78
2023/08/29 11:50:40;;;;;;;4.68;3.42;;;20.00;97.70;;;;;;6269002;22;20083;-78
2023/08/29 11:53:32;;;;;;;5.15;3.30;;;20.00;97.70;;;;;;6271202;22;20458;-79
2023/08/29 11:56:18;;;;;;;4.80;3.55;;;20.00;97.70;;;;;;6270892;22;20020;-78
2023/08/29 11:59:04;;;;;;;4.63;3.63;;;20.10;97.70;;;;;;6252090;22;20349;-78
2023/08/29 12:01:50;;;;;;;5.28;3.97;;;20.00;97.50;;;;;;6249767;22;20015;-77
2023/08/29 12:04:56;;;;;;;4.10;3.03;;;20.10;97.40;;;;;;6251555;22;20003;-78
2023/08/29 12:07:44;;;;;;;4.40;3.30;;;20.10;97.40;;;;;;6249805;22;20016;-78
2023/08/29 12:10:30;;;;;;;5.50;3.28;;;20.20;97.60;;;;;;6272611;22;20008;-77
2023/08/29 12:13:16;;;;;;;4.18;3.30;;;20.20;97.30;;;;;;6270931;22;20051;-75
2023/08/29 12:16:03;;;;;;;4.32;3.13;;;20.10;97.40;;;;;;6271639;22;20024;-75
2023/08/29 12:18:49;;;;;;;4.80;3.13;;;20.20;97.40;;;;;;6271776;22;20031;-75
2023/08/29 12:21:35;;;;;;;4.40;3.70;;;20.20;97.10;;;;;;6271485;22;20039;-75
2023/08/29 12:24:21;;;;;;;5.03;3.42;;;20.20;97.10;;;;;;6271726;22;20429;-75
2023/08/29 12:27:07;;;;;;;4.57;3.70;;;20.20;96.90;;;;;;6270777;22;20015;-75
2023/08/29 12:29:53;;;;;;;3.80;3.28;;;20.10;96.90;;;;;;6272208;22;20348;-77
2023/08/29 12:32:40;;;;;;;4.68;3.40;;;20.00;96.80;;;;;;6270780;22;20012;-75
2023/08/29 12:35:26;;;;;;;5.82;3.33;;;20.00;96.80;;;;;;6271555;22;20497;-75
2023/08/29 12:38:12;;;;;;;4.97;3.60;;;19.90;96.80;;;;;;6269401;22;20023;-74
2023/08/29 12:40:58;;;;;;;5.75;3.85;;;19.90;96.80;;;;;;6269925;22;20058;-74
2023/08/29 12:43:44;;;;;;;4.45;3.63;;;19.90;96.70;;;;;;6271489;22;20003;-75
2023/08/29 12:46:33;;;;;;;4.40;3.53;;;19.80;96.70;;;;;;6268737;22;20090;-75
2023/08/29 12:49:19;;;;;;;4.18;3.33;;;19.70;96.80;;;;;;6269779;22;20433;-76
2023/08/29 12:52:06;;;;;;;6.72;3.72;;;19.70;96.80;;;;;;6271205;22;20058;-74
2023/08/29 12:54:52;;;;;;;6.55;3.90;;;19.70;96.70;;;;;;6268942;22;20085;-75
2023/08/29 12:57:38;;;;;;;4.47;3.28;;;19.70;96.90;;;;;;6271913;22;20007;-75
2023/08/29 13:00:25;;;;;;;6.15;3.60;;;19.70;96.70;;;;;;6271738;22;20004;-74
2023/08/29 13:03:11;;;;;;;5.80;3.63;;;19.70;96.70;;;;;;6273027;22;20008;-74
2023/08/29 13:05:57;;;;;;;5.13;3.47;;;19.80;96.70;;;;;;6270074;22;20011;-74
2023/08/29 13:08:43;;;;;;;5.50;3.85;;;19.80;96.50;;;;;;6252124;22;20082;-74
2023/08/29 13:11:29;;;;;;;4.88;3.42;;;19.80;96.70;;;;;;6271847;22;20008;-74
2023/08/29 13:14:15;;;;;;;5.53;3.88;;;19.80;96.60;;;;;;6270244;22;20089;-74
2023/08/29 13:17:03;;;;;;;4.93;2.78;;;19.80;96.70;;;;;;6268443;22;20030;-74
2023/08/29 13:19:49;;;;;;;8.02;4.20;;;19.70;96.50;;;;;;6270459;22;20348;-74
2023/08/29 13:22:39;;;;;;;6.32;3.85;;;19.80;96.40;;;;;;6273366;22;20014;-74
2023/08/29 13:25:25;;;;;;;3.90;3.28;;;19.80;96.40;;;;;;6274171;22;20698;-74
2023/08/29 13:28:11;;;;;;;4.45;3.28;;;19.80;96.40;;;;;;6273682;22;20016;-74
2023/08/29 13:30:58;;;;;;;6.13;4.28;;;19.80;96.50;;;;;;6272925;22;20015;-74
2023/08/29 13:33:45;;;;;;;6.70;4.70;;;19.80;96.30;;;;;;6275335;22;20007;-75
2023/08/29 13:36:31;;;;;;;8.00;5.00;;;19.80;96.40;;;;;;6279364;22;20076;-74
2023/08/29 13:39:17;;;;;;;5.03;4.50;;;19.70;96.20;;;;;;6274997;22;20008;-74
2023/08/29 13:42:03;;;;;;;5.43;3.85;;;19.70;96.10;;;;;;6272641;22;20055;-75
2023/08/29 13:45:00;;;;;;;5.05;4.13;;;19.70;96.20;;;;;;6273163;22;20039;-74
2023/08/29 13:47:46;;;;;;;9.45;4.07;;;19.60;96.20;;;;;;6271205;22;20008;-75
2023/08/29 13:50:32;;;;;;;3.78;2.60;;;19.50;96.30;;;;;;6271710;22;20111;-75
2023/08/29 13:53:18;;;;;;;3.60;2.78;;;19.50;96.60;;;;;;6272503;22;20008;-75
2023/08/29 13:56:04;;;;;;;2.90;2.42;;;19.30;96.80;;;;;;6273094;22;20353;-74
2023/08/29 13:58:51;;;;;;;3.10;2.47;;;19.20;97.00;;;;;;6272141;22;20278;-74
2023/08/29 14:01:37;;;;;;;3.88;2.58;;;19.10;97.20;;;;;;6272785;22;20015;-73
2023/08/29 14:04:23;;;;;;;3.83;2.55;;;19.00;97.40;;;;;;6272705;22;20014;-75
2023/08/29 14:07:09;;;;;;;3.35;2.88;;;19.00;97.70;;;;;;6272002;22;20015;-74
2023/08/29 14:09:54;;;;;;;3.03;2.28;;;18.90;97.90;;;;;;6272571;22;20039;-75
2023/08/29 14:12:40;;;;;;;2.80;2.20;;;18.80;98.10;;;;;;6271892;22;20027;-74
2023/08/29 14:15:27;;;;;;;3.55;2.50;;;18.70;98.20;;;;;;6249781;22;20019;-77
2023/08/29 14:18:13;;;;;;;4.10;2.55;;;18.70;98.50;;;;;;6272131;22;20336;-78
2023/08/29 14:20:59;;;;;;;5.80;2.55;;;18.60;98.70;;;;;;6272047;22;20090;-76
2023/08/29 14:23:45;;;;;;;3.50;2.67;;;18.60;99.00;;;;;;6270461;22;20081;-76
2023/08/29 14:26:31;;;;;;;3.72;2.60;;;18.50;99.10;;;;;;6273055;22;20091;-76
2023/08/29 14:29:17;;;;;;;2.95;2.60;;;18.50;99.30;;;;;;6250548;22;20011;-76
2023/08/29 14:32:03;;;;;;;3.47;2.30;;;18.50;99.40;;;;;;6272931;22;20449;-75